sensor_id;sensor_type;location;lat;lon;timestamp;P1;durP1;ratioP1;P2;durP2;ratioP2
11771;SDS011;12556;55.748;13.194;2022-09-09T00:00:24;5.00;;;2.30;;
11771;SDS011;12556;55.748;13.194;2022-09-09T00:02:59;4.00;;;2.50;;
11771;SDS011;12556;55.748;13.194;2022-09-09T00:05:35;4.43;;;2.37;;
11771;SDS011;12556;55.748;13.194;2022-09-09T00:08:12;3.53;;;2.17;;
11771;SDS011;12556;55.748;13.194;2022-09-09T00:10:43;2.13;;;1.93;;
11771;SDS011;12556;55.748;13.194;2022-09-09T00:13:13;4.07;;;2.23;;
11771;SDS011;12556;55.748;13.194;2022-09-09T00:15:46;4.87;;;2.90;;
11771;SDS011;12556;55.748;13.194;2022-09-09T00:18:22;4.80;;;2.60;;
11771;SDS011;12556;55.748;13.194;2022-09-09T00:20:55;3.93;;;2.83;;
11771;SDS011;12556;55.748;13.194;2022-09-09T00:23:30;4.13;;;2.70;;
11771;SDS011;12556;55.748;13.194;2022-09-09T00:26:01;4.97;;;3.13;;
11771;SDS011;12556;55.748;13.194;2022-09-09T00:28:33;3.43;;;2.80;;
11771;SDS011;12556;55.748;13.194;2022-09-09T00:31:08;4.13;;;2.47;;
11771;SDS011;12556;55.748;13.194;2022-09-09T00:33:39;8.47;;;2.57;;
11771;SDS011;12556;55.748;13.194;2022-09-09T00:36:12;4.47;;;2.83;;
11771;SDS011;12556;55.748;13.194;2022-09-09T00:38:42;3.60;;;2.93;;
11771;SDS011;12556;55.748;13.194;2022-09-09T00:41:14;6.17;;;2.90;;
11771;SDS011;12556;55.748;13.194;2022-09-09T00:43:51;7.60;;;3.20;;
11771;SDS011;12556;55.748;13.194;2022-09-09T00:46:33;8.40;;;3.40;;
11771;SDS011;12556;55.748;13.194;2022-09-09T00:49:15;3.23;;;2.83;;
11771;SDS011;12556;55.748;13.194;2022-09-09T00:51:55;3.20;;;2.53;;
11771;SDS011;12556;55.748;13.194;2022-09-09T00:54:32;4.73;;;2.40;;
11771;SDS011;12556;55.748;13.194;2022-09-09T00:57:20;4.10;;;2.67;;
11771;SDS011;12556;55.748;13.194;2022-09-09T00:59:55;3.53;;;3.00;;
11771;SDS011;12556;55.748;13.194;2022-09-09T01:02:31;3.40;;;2.27;;
11771;SDS011;12556;55.748;13.194;2022-09-09T01:05:05;4.80;;;2.70;;
11771;SDS011;12556;55.748;13.194;2022-09-09T01:07:39;3.07;;;2.43;;
11771;SDS011;12556;55.748;13.194;2022-09-09T01:10:13;5.00;;;2.90;;
11771;SDS011;12556;55.748;13.194;2022-09-09T01:12:51;4.87;;;2.50;;
11771;SDS011;12556;55.748;13.194;2022-09-09T01:15:20;3.83;;;2.47;;
11771;SDS011;12556;55.748;13.194;2022-09-09T01:17:52;5.03;;;2.70;;
11771;SDS011;12556;55.748;13.194;2022-09-09T01:20:27;7.77;;;2.73;;
11771;SDS011;12556;55.748;13.194;2022-09-09T01:23:09;6.17;;;2.83;;
11771;SDS011;12556;55.748;13.194;2022-09-09T01:28:45;4.50;;;2.67;;
11771;SDS011;12556;55.748;13.194;2022-09-09T01:31:15;5.77;;;2.60;;
11771;SDS011;12556;55.748;13.194;2022-09-09T01:33:46;6.30;;;2.63;;
11771;SDS011;12556;55.748;13.194;2022-09-09T01:36:15;6.20;;;2.60;;
11771;SDS011;12556;55.748;13.194;2022-09-09T01:38:47;3.37;;;2.53;;
11771;SDS011;12556;55.748;13.194;2022-09-09T01:41:14;6.63;;;2.40;;
11771;SDS011;12556;55.748;13.194;2022-09-09T01:43:41;4.93;;;3.17;;
11771;SDS011;12556;55.748;13.194;2022-09-09T01:46:09;3.70;;;2.57;;
11771;SDS011;12556;55.748;13.194;2022-09-09T01:48:38;5.70;;;2.97;;
11771;SDS011;12556;55.748;13.194;2022-09-09T01:51:07;5.60;;;2.70;;
11771;SDS011;12556;55.748;13.194;2022-09-09T01:53:35;3.17;;;2.87;;
11771;SDS011;12556;55.748;13.194;2022-09-09T01:56:06;5.00;;;2.80;;
11771;SDS011;12556;55.748;13.194;2022-09-09T01:58:44;4.93;;;2.90;;
11771;SDS011;12556;55.748;13.194;2022-09-09T02:01:24;4.83;;;2.57;;
11771;SDS011;12556;55.748;13.194;2022-09-09T02:03:57;5.60;;;2.70;;
11771;SDS011;12556;55.748;13.194;2022-09-09T02:06:27;3.47;;;2.30;;
11771;SDS011;12556;55.748;13.194;2022-09-09T02:09:00;3.80;;;2.40;;
11771;SDS011;12556;55.748;13.194;2022-09-09T02:11:31;5.30;;;2.33;;
11771;SDS011;12556;55.748;13.194;2022-09-09T02:14:00;3.83;;;2.67;;
11771;SDS011;12556;55.748;13.194;2022-09-09T02:16:30;6.20;;;2.83;;
11771;SDS011;12556;55.748;13.194;2022-09-09T02:19:02;3.83;;;2.60;;
11771;SDS011;12556;55.748;13.194;2022-09-09T02:21:35;6.43;;;3.37;;
11771;SDS011;12556;55.748;13.194;2022-09-09T02:24:04;4.47;;;2.47;;
11771;SDS011;12556;55.748;13.194;2022-09-09T02:26:35;5.07;;;2.63;;
11771;SDS011;12556;55.748;13.194;2022-09-09T02:29:07;5.93;;;2.70;;
11771;SDS011;12556;55.748;13.194;2022-09-09T02:31:39;4.87;;;2.70;;
11771;SDS011;12556;55.748;13.194;2022-09-09T02:34:08;5.97;;;2.60;;
11771;SDS011;12556;55.748;13.194;2022-09-09T02:36:36;5.23;;;2.77;;
11771;SDS011;12556;55.748;13.194;2022-09-09T02:39:06;3.00;;;2.37;;
11771;SDS011;12556;55.748;13.194;2022-09-09T02:41:36;6.67;;;2.73;;
11771;SDS011;12556;55.748;13.194;2022-09-09T02:44:05;3.87;;;2.43;;
11771;SDS011;12556;55.748;13.194;2022-09-09T02:46:48;3.87;;;2.47;;
11771;SDS011;12556;55.748;13.194;2022-09-09T02:49:28;3.37;;;2.67;;
11771;SDS011;12556;55.748;13.194;2022-09-09T02:52:07;6.27;;;3.30;;
11771;SDS011;12556;55.748;13.194;2022-09-09T02:54:37;5.20;;;3.23;;
11771;SDS011;12556;55.748;13.194;2022-09-09T02:57:06;8.13;;;2.93;;
11771;SDS011;12556;55.748;13.194;2022-09-09T02:59:36;5.87;;;2.70;;
11771;SDS011;12556;55.748;13.194;2022-09-09T03:02:05;5.17;;;3.00;;
11771;SDS011;12556;55.748;13.194;2022-09-09T03:04:32;3.70;;;2.33;;
11771;SDS011;12556;55.748;13.194;2022-09-09T03:06:59;4.37;;;2.77;;
11771;SDS011;12556;55.748;13.194;2022-09-09T03:09:28;4.43;;;2.63;;
11771;SDS011;12556;55.748;13.194;2022-09-09T03:11:55;7.37;;;2.87;;
11771;SDS011;12556;55.748;13.194;2022-09-09T03:14:22;4.23;;;2.77;;
11771;SDS011;12556;55.748;13.194;2022-09-09T03:16:50;8.07;;;3.13;;
11771;SDS011;12556;55.748;13.194;2022-09-09T03:19:19;4.90;;;2.80;;
11771;SDS011;12556;55.748;13.194;2022-09-09T03:21:46;7.40;;;3.47;;
11771;SDS011;12556;55.748;13.194;2022-09-09T03:24:14;3.57;;;2.50;;
11771;SDS011;12556;55.748;13.194;2022-09-09T03:26:41;7.33;;;3.20;;
11771;SDS011;12556;55.748;13.194;2022-09-09T03:29:09;6.57;;;3.03;;
11771;SDS011;12556;55.748;13.194;2022-09-09T03:31:37;7.53;;;3.40;;
11771;SDS011;12556;55.748;13.194;2022-09-09T03:34:04;5.17;;;2.50;;
11771;SDS011;12556;55.748;13.194;2022-09-09T03:36:32;5.23;;;2.80;;
11771;SDS011;12556;55.748;13.194;2022-09-09T03:38:59;7.33;;;2.77;;
11771;SDS011;12556;55.748;13.194;2022-09-09T03:41:28;10.30;;;3.37;;
11771;SDS011;12556;55.748;13.194;2022-09-09T03:43:55;4.77;;;2.93;;
11771;SDS011;12556;55.748;13.194;2022-09-09T03:46:23;4.60;;;3.03;;
11771;SDS011;12556;55.748;13.194;2022-09-09T03:48:51;8.33;;;3.10;;
11771;SDS011;12556;55.748;13.194;2022-09-09T03:51:18;4.20;;;2.60;;
11771;SDS011;12556;55.748;13.194;2022-09-09T03:53:47;8.83;;;2.97;;
11771;SDS011;12556;55.748;13.194;2022-09-09T03:56:14;6.57;;;3.03;;
11771;SDS011;12556;55.748;13.194;2022-09-09T03:58:41;6.97;;;3.10;;
11771;SDS011;12556;55.748;13.194;2022-09-09T04:01:08;6.70;;;2.97;;
11771;SDS011;12556;55.748;13.194;2022-09-09T04:03:38;4.57;;;2.90;;
11771;SDS011;12556;55.748;13.194;2022-09-09T04:06:08;7.87;;;4.03;;
11771;SDS011;12556;55.748;13.194;2022-09-09T04:08:36;10.03;;;4.13;;
11771;SDS011;12556;55.748;13.194;2022-09-09T04:11:05;6.97;;;3.30;;
11771;SDS011;12556;55.748;13.194;2022-09-09T04:13:32;5.50;;;3.10;;
11771;SDS011;12556;55.748;13.194;2022-09-09T04:16:00;9.73;;;3.20;;
11771;SDS011;12556;55.748;13.194;2022-09-09T04:18:29;5.63;;;3.20;;
11771;SDS011;12556;55.748;13.194;2022-09-09T04:20:56;8.60;;;3.07;;
11771;SDS011;12556;55.748;13.194;2022-09-09T04:23:24;8.60;;;3.50;;
11771;SDS011;12556;55.748;13.194;2022-09-09T04:25:54;5.93;;;3.67;;
11771;SDS011;12556;55.748;13.194;2022-09-09T04:28:24;8.23;;;3.33;;
11771;SDS011;12556;55.748;13.194;2022-09-09T04:30:52;7.07;;;2.83;;
11771;SDS011;12556;55.748;13.194;2022-09-09T04:33:20;5.07;;;3.20;;
11771;SDS011;12556;55.748;13.194;2022-09-09T04:35:47;7.00;;;2.87;;
11771;SDS011;12556;55.748;13.194;2022-09-09T04:38:15;5.87;;;3.10;;
11771;SDS011;12556;55.748;13.194;2022-09-09T04:40:43;10.47;;;3.40;;
11771;SDS011;12556;55.748;13.194;2022-09-09T04:43:10;5.27;;;2.57;;
11771;SDS011;12556;55.748;13.194;2022-09-09T04:45:38;5.53;;;2.80;;
11771;SDS011;12556;55.748;13.194;2022-09-09T04:48:06;3.33;;;2.93;;
11771;SDS011;12556;55.748;13.194;2022-09-09T04:50:33;7.03;;;3.03;;
11771;SDS011;12556;55.748;13.194;2022-09-09T04:53:00;6.00;;;2.97;;
11771;SDS011;12556;55.748;13.194;2022-09-09T04:55:30;4.33;;;2.80;;
11771;SDS011;12556;55.748;13.194;2022-09-09T04:57:57;6.03;;;3.40;;
11771;SDS011;12556;55.748;13.194;2022-09-09T05:00:28;3.97;;;2.63;;
11771;SDS011;12556;55.748;13.194;2022-09-09T05:02:57;5.13;;;2.80;;
11771;SDS011;12556;55.748;13.194;2022-09-09T05:05:24;6.17;;;3.50;;
11771;SDS011;12556;55.748;13.194;2022-09-09T05:07:51;5.73;;;2.73;;
11771;SDS011;12556;55.748;13.194;2022-09-09T05:10:18;6.07;;;2.97;;
11771;SDS011;12556;55.748;13.194;2022-09-09T05:12:51;4.37;;;3.00;;
11771;SDS011;12556;55.748;13.194;2022-09-09T05:15:19;4.53;;;2.90;;
11771;SDS011;12556;55.748;13.194;2022-09-09T05:17:46;7.07;;;2.80;;
11771;SDS011;12556;55.748;13.194;2022-09-09T05:20:14;4.17;;;2.80;;
11771;SDS011;12556;55.748;13.194;2022-09-09T05:22:41;4.00;;;2.70;;
11771;SDS011;12556;55.748;13.194;2022-09-09T05:25:08;6.10;;;2.90;;
11771;SDS011;12556;55.748;13.194;2022-09-09T05:27:35;5.80;;;2.60;;
11771;SDS011;12556;55.748;13.194;2022-09-09T05:30:03;4.17;;;2.77;;
11771;SDS011;12556;55.748;13.194;2022-09-09T05:32:30;5.23;;;2.60;;
11771;SDS011;12556;55.748;13.194;2022-09-09T05:34:59;4.97;;;2.53;;
11771;SDS011;12556;55.748;13.194;2022-09-09T05:37:28;4.20;;;2.73;;
11771;SDS011;12556;55.748;13.194;2022-09-09T05:39:55;5.40;;;3.00;;
11771;SDS011;12556;55.748;13.194;2022-09-09T05:42:22;4.63;;;3.07;;
11771;SDS011;12556;55.748;13.194;2022-09-09T05:44:49;5.77;;;3.00;;
11771;SDS011;12556;55.748;13.194;2022-09-09T05:47:19;5.70;;;2.87;;
11771;SDS011;12556;55.748;13.194;2022-09-09T05:49:46;4.63;;;3.03;;
11771;SDS011;12556;55.748;13.194;2022-09-09T05:52:13;6.57;;;2.87;;
11771;SDS011;12556;55.748;13.194;2022-09-09T05:54:41;7.50;;;3.20;;
11771;SDS011;12556;55.748;13.194;2022-09-09T05:57:08;4.83;;;2.67;;
11771;SDS011;12556;55.748;13.194;2022-09-09T05:59:35;6.10;;;3.23;;
11771;SDS011;12556;55.748;13.194;2022-09-09T06:02:03;5.40;;;2.83;;
11771;SDS011;12556;55.748;13.194;2022-09-09T06:04:30;3.40;;;2.87;;
11771;SDS011;12556;55.748;13.194;2022-09-09T06:06:57;4.53;;;3.00;;
11771;SDS011;12556;55.748;13.194;2022-09-09T06:09:24;4.00;;;3.13;;
11771;SDS011;12556;55.748;13.194;2022-09-09T06:11:52;6.20;;;3.37;;
11771;SDS011;12556;55.748;13.194;2022-09-09T06:14:20;4.47;;;3.10;;
11771;SDS011;12556;55.748;13.194;2022-09-09T06:16:47;6.33;;;3.00;;
11771;SDS011;12556;55.748;13.194;2022-09-09T06:19:13;5.07;;;2.93;;
11771;SDS011;12556;55.748;13.194;2022-09-09T06:21:41;4.57;;;2.83;;
11771;SDS011;12556;55.748;13.194;2022-09-09T06:24:09;7.27;;;3.33;;
11771;SDS011;12556;55.748;13.194;2022-09-09T06:26:39;4.53;;;2.90;;
11771;SDS011;12556;55.748;13.194;2022-09-09T06:29:07;6.70;;;3.30;;
11771;SDS011;12556;55.748;13.194;2022-09-09T06:31:35;7.20;;;3.33;;
11771;SDS011;12556;55.748;13.194;2022-09-09T06:34:04;7.33;;;3.20;;
11771;SDS011;12556;55.748;13.194;2022-09-09T06:36:32;5.27;;;3.07;;
11771;SDS011;12556;55.748;13.194;2022-09-09T06:39:00;8.27;;;3.53;;
11771;SDS011;12556;55.748;13.194;2022-09-09T06:41:28;4.67;;;2.70;;
11771;SDS011;12556;55.748;13.194;2022-09-09T06:43:56;9.97;;;3.10;;
11771;SDS011;12556;55.748;13.194;2022-09-09T06:46:25;3.70;;;2.87;;
11771;SDS011;12556;55.748;13.194;2022-09-09T06:48:55;4.37;;;2.57;;
11771;SDS011;12556;55.748;13.194;2022-09-09T06:51:25;3.33;;;2.60;;
11771;SDS011;12556;55.748;13.194;2022-09-09T06:53:53;4.83;;;2.70;;
11771;SDS011;12556;55.748;13.194;2022-09-09T06:56:22;6.20;;;2.43;;
11771;SDS011;12556;55.748;13.194;2022-09-09T06:58:51;5.23;;;3.00;;
11771;SDS011;12556;55.748;13.194;2022-09-09T07:01:20;3.80;;;2.50;;
11771;SDS011;12556;55.748;13.194;2022-09-09T07:03:49;5.40;;;2.10;;
11771;SDS011;12556;55.748;13.194;2022-09-09T07:06:19;2.30;;;2.10;;
11771;SDS011;12556;55.748;13.194;2022-09-09T07:08:49;3.37;;;2.53;;
11771;SDS011;12556;55.748;13.194;2022-09-09T07:11:17;5.70;;;2.53;;
11771;SDS011;12556;55.748;13.194;2022-09-09T07:13:45;3.17;;;2.27;;
11771;SDS011;12556;55.748;13.194;2022-09-09T07:16:15;2.47;;;2.00;;
11771;SDS011;12556;55.748;13.194;2022-09-09T07:18:43;4.33;;;2.70;;
11771;SDS011;12556;55.748;13.194;2022-09-09T07:21:12;2.73;;;2.20;;
11771;SDS011;12556;55.748;13.194;2022-09-09T07:23:41;2.27;;;1.90;;
11771;SDS011;12556;55.748;13.194;2022-09-09T07:26:08;2.60;;;2.07;;
11771;SDS011;12556;55.748;13.194;2022-09-09T07:28:36;3.30;;;2.00;;
11771;SDS011;12556;55.748;13.194;2022-09-09T07:31:04;2.27;;;1.90;;
11771;SDS011;12556;55.748;13.194;2022-09-09T07:33:32;2.40;;;2.20;;
11771;SDS011;12556;55.748;13.194;2022-09-09T07:36:07;4.87;;;2.20;;
11771;SDS011;12556;55.748;13.194;2022-09-09T07:38:39;2.60;;;1.90;;
11771;SDS011;12556;55.748;13.194;2022-09-09T07:41:09;2.93;;;1.80;;
11771;SDS011;12556;55.748;13.194;2022-09-09T07:43:38;3.67;;;2.10;;
11771;SDS011;12556;55.748;13.194;2022-09-09T07:46:05;4.20;;;2.93;;
11771;SDS011;12556;55.748;13.194;2022-09-09T07:48:33;4.17;;;2.77;;
11771;SDS011;12556;55.748;13.194;2022-09-09T07:51:04;3.33;;;2.40;;
11771;SDS011;12556;55.748;13.194;2022-09-09T07:53:33;5.50;;;3.10;;
11771;SDS011;12556;55.748;13.194;2022-09-09T07:56:07;3.27;;;2.60;;
11771;SDS011;12556;55.748;13.194;2022-09-09T07:58:35;4.17;;;2.57;;
11771;SDS011;12556;55.748;13.194;2022-09-09T08:01:06;2.50;;;2.17;;
11771;SDS011;12556;55.748;13.194;2022-09-09T08:03:34;5.00;;;2.10;;
11771;SDS011;12556;55.748;13.194;2022-09-09T08:06:02;2.90;;;1.70;;
11771;SDS011;12556;55.748;13.194;2022-09-09T08:08:29;1.70;;;1.50;;
11771;SDS011;12556;55.748;13.194;2022-09-09T08:11:07;2.27;;;1.60;;
11771;SDS011;12556;55.748;13.194;2022-09-09T08:13:37;2.77;;;1.40;;
11771;SDS011;12556;55.748;13.194;2022-09-09T08:16:05;1.47;;;1.33;;
11771;SDS011;12556;55.748;13.194;2022-09-09T08:18:34;2.17;;;1.70;;
11771;SDS011;12556;55.748;13.194;2022-09-09T08:21:05;2.10;;;1.50;;
11771;SDS011;12556;55.748;13.194;2022-09-09T08:23:37;1.63;;;1.20;;
11771;SDS011;12556;55.748;13.194;2022-09-09T08:26:09;1.53;;;1.43;;
11771;SDS011;12556;55.748;13.194;2022-09-09T08:28:37;1.93;;;1.20;;
11771;SDS011;12556;55.748;13.194;2022-09-09T08:31:05;2.57;;;1.20;;
11771;SDS011;12556;55.748;13.194;2022-09-09T08:33:36;1.50;;;1.40;;
11771;SDS011;12556;55.748;13.194;2022-09-09T08:36:04;1.17;;;1.10;;
11771;SDS011;12556;55.748;13.194;2022-09-09T08:38:32;1.13;;;1.00;;
11771;SDS011;12556;55.748;13.194;2022-09-09T08:41:03;1.10;;;1.00;;
11771;SDS011;12556;55.748;13.194;2022-09-09T08:43:59;2.40;;;1.07;;
11771;SDS011;12556;55.748;13.194;2022-09-09T08:46:31;1.37;;;1.00;;
11771;SDS011;12556;55.748;13.194;2022-09-09T08:49:05;0.93;;;0.80;;
11771;SDS011;12556;55.748;13.194;2022-09-09T08:51:43;5.10;;;1.03;;
11771;SDS011;12556;55.748;13.194;2022-09-09T08:54:10;1.23;;;1.00;;
11771;SDS011;12556;55.748;13.194;2022-09-09T08:56:41;1.67;;;0.93;;
11771;SDS011;12556;55.748;13.194;2022-09-09T08:59:09;1.07;;;0.90;;
11771;SDS011;12556;55.748;13.194;2022-09-09T09:04:46;1.80;;;1.20;;
11771;SDS011;12556;55.748;13.194;2022-09-09T09:07:23;1.33;;;1.23;;
11771;SDS011;12556;55.748;13.194;2022-09-09T09:10:00;1.50;;;1.23;;
11771;SDS011;12556;55.748;13.194;2022-09-09T09:12:38;1.10;;;1.10;;
11771;SDS011;12556;55.748;13.194;2022-09-09T09:15:11;1.50;;;1.27;;
11771;SDS011;12556;55.748;13.194;2022-09-09T09:17:43;1.43;;;1.33;;
11771;SDS011;12556;55.748;13.194;2022-09-09T09:20:11;2.80;;;1.50;;
11771;SDS011;12556;55.748;13.194;2022-09-09T09:22:43;1.67;;;1.47;;
11771;SDS011;12556;55.748;13.194;2022-09-09T09:25:16;1.63;;;1.53;;
11771;SDS011;12556;55.748;13.194;2022-09-09T09:27:48;1.60;;;1.50;;
11771;SDS011;12556;55.748;13.194;2022-09-09T09:30:21;1.80;;;1.57;;
11771;SDS011;12556;55.748;13.194;2022-09-09T09:32:52;2.97;;;1.77;;
11771;SDS011;12556;55.748;13.194;2022-09-09T09:35:21;2.33;;;1.63;;
11771;SDS011;12556;55.748;13.194;2022-09-09T09:37:48;2.00;;;1.80;;
11771;SDS011;12556;55.748;13.194;2022-09-09T09:40:16;2.13;;;1.90;;
11771;SDS011;12556;55.748;13.194;2022-09-09T09:42:49;3.03;;;1.60;;
11771;SDS011;12556;55.748;13.194;2022-09-09T09:45:26;2.07;;;1.73;;
11771;SDS011;12556;55.748;13.194;2022-09-09T09:48:00;3.83;;;2.23;;
11771;SDS011;12556;55.748;13.194;2022-09-09T09:50:29;2.00;;;1.80;;
11771;SDS011;12556;55.748;13.194;2022-09-09T09:52:58;3.00;;;2.00;;
11771;SDS011;12556;55.748;13.194;2022-09-09T09:55:26;5.00;;;1.90;;
11771;SDS011;12556;55.748;13.194;2022-09-09T09:58:01;2.20;;;2.00;;
11771;SDS011;12556;55.748;13.194;2022-09-09T10:00:29;2.97;;;2.20;;
11771;SDS011;12556;55.748;13.194;2022-09-09T10:02:56;2.30;;;2.10;;
11771;SDS011;12556;55.748;13.194;2022-09-09T10:05:26;2.87;;;1.63;;
11771;SDS011;12556;55.748;13.194;2022-09-09T10:08:02;1.63;;;1.53;;
11771;SDS011;12556;55.748;13.194;2022-09-09T10:10:34;2.23;;;2.10;;
11771;SDS011;12556;55.748;13.194;2022-09-09T10:13:18;2.63;;;1.87;;
11771;SDS011;12556;55.748;13.194;2022-09-09T10:15:53;2.07;;;1.73;;
11771;SDS011;12556;55.748;13.194;2022-09-09T10:18:38;3.67;;;2.10;;
11771;SDS011;12556;55.748;13.194;2022-09-09T10:21:15;2.37;;;2.17;;
11771;SDS011;12556;55.748;13.194;2022-09-09T10:24:11;3.23;;;1.97;;
11771;SDS011;12556;55.748;13.194;2022-09-09T10:26:55;2.63;;;2.10;;
11771;SDS011;12556;55.748;13.194;2022-09-09T10:29:35;4.00;;;2.57;;
11771;SDS011;12556;55.748;13.194;2022-09-09T10:32:20;3.10;;;2.30;;
11771;SDS011;12556;55.748;13.194;2022-09-09T10:35:01;1.70;;;1.60;;
11771;SDS011;12556;55.748;13.194;2022-09-09T10:37:41;1.70;;;1.60;;
11771;SDS011;12556;55.748;13.194;2022-09-09T10:40:33;2.07;;;1.93;;
11771;SDS011;12556;55.748;13.194;2022-09-09T10:43:07;1.90;;;1.77;;
11771;SDS011;12556;55.748;13.194;2022-09-09T10:45:43;1.87;;;1.77;;
11771;SDS011;12556;55.748;13.194;2022-09-09T10:48:25;1.90;;;1.70;;
11771;SDS011;12556;55.748;13.194;2022-09-09T10:51:01;1.77;;;1.60;;
11771;SDS011;12556;55.748;13.194;2022-09-09T10:53:37;1.90;;;1.70;;
11771;SDS011;12556;55.748;13.194;2022-09-09T10:56:13;1.52;;;1.40;;
11771;SDS011;12556;55.748;13.194;2022-09-09T10:58:44;1.70;;;1.60;;
11771;SDS011;12556;55.748;13.194;2022-09-09T11:01:17;1.40;;;1.30;;
11771;SDS011;12556;55.748;13.194;2022-09-09T11:03:50;1.98;;;1.58;;
11771;SDS011;12556;55.748;13.194;2022-09-09T11:06:24;2.28;;;1.92;;
11771;SDS011;12556;55.748;13.194;2022-09-09T11:08:58;1.80;;;1.70;;
11771;SDS011;12556;55.748;13.194;2022-09-09T11:11:29;2.95;;;1.60;;
11771;SDS011;12556;55.748;13.194;2022-09-09T11:14:03;1.30;;;1.30;;
11771;SDS011;12556;55.748;13.194;2022-09-09T11:16:38;1.05;;;0.95;;
11771;SDS011;12556;55.748;13.194;2022-09-09T11:19:11;1.27;;;1.05;;
11771;SDS011;12556;55.748;13.194;2022-09-09T11:21:44;0.98;;;0.98;;
11771;SDS011;12556;55.748;13.194;2022-09-09T11:24:13;3.03;;;1.27;;
11771;SDS011;12556;55.748;13.194;2022-09-09T11:26:45;1.25;;;1.15;;
11771;SDS011;12556;55.748;13.194;2022-09-09T11:29:23;1.33;;;1.23;;
11771;SDS011;12556;55.748;13.194;2022-09-09T11:32:07;1.58;;;1.13;;
11771;SDS011;12556;55.748;13.194;2022-09-09T11:34:45;1.02;;;1.00;;
11771;SDS011;12556;55.748;13.194;2022-09-09T11:37:33;1.52;;;1.27;;
11771;SDS011;12556;55.748;13.194;2022-09-09T11:40:24;1.98;;;1.20;;
11771;SDS011;12556;55.748;13.194;2022-09-09T11:43:02;1.65;;;1.55;;
11771;SDS011;12556;55.748;13.194;2022-09-09T11:45:31;1.70;;;1.60;;
11771;SDS011;12556;55.748;13.194;2022-09-09T11:48:03;1.58;;;1.48;;
11771;SDS011;12556;55.748;13.194;2022-09-09T11:50:35;1.52;;;1.42;;
11771;SDS011;12556;55.748;13.194;2022-09-09T11:53:04;1.38;;;1.27;;
11771;SDS011;12556;55.748;13.194;2022-09-09T11:55:47;1.77;;;1.67;;
11771;SDS011;12556;55.748;13.194;2022-09-09T11:58:27;3.00;;;2.08;;
11771;SDS011;12556;55.748;13.194;2022-09-09T12:00:58;2.30;;;2.10;;
11771;SDS011;12556;55.748;13.194;2022-09-09T12:03:33;2.45;;;2.05;;
11771;SDS011;12556;55.748;13.194;2022-09-09T12:06:09;1.92;;;1.83;;
11771;SDS011;12556;55.748;13.194;2022-09-09T12:08:41;2.47;;;2.33;;
11771;SDS011;12556;55.748;13.194;2022-09-09T12:11:12;2.85;;;2.65;;
11771;SDS011;12556;55.748;13.194;2022-09-09T12:13:54;2.90;;;2.70;;
11771;SDS011;12556;55.748;13.194;2022-09-09T12:16:28;3.10;;;2.80;;
11771;SDS011;12556;55.748;13.194;2022-09-09T12:19:14;4.22;;;3.50;;
11771;SDS011;12556;55.748;13.194;2022-09-09T12:21:45;5.90;;;5.20;;
11771;SDS011;12556;55.748;13.194;2022-09-09T12:24:19;4.97;;;4.57;;
11771;SDS011;12556;55.748;13.194;2022-09-09T12:26:54;6.10;;;5.03;;
11771;SDS011;12556;55.748;13.194;2022-09-09T12:29:27;5.75;;;5.25;;
11771;SDS011;12556;55.748;13.194;2022-09-09T12:32:02;5.75;;;5.25;;
11771;SDS011;12556;55.748;13.194;2022-09-09T12:34:36;6.57;;;5.07;;
11771;SDS011;12556;55.748;13.194;2022-09-09T12:37:08;6.90;;;5.50;;
11771;SDS011;12556;55.748;13.194;2022-09-09T12:39:44;5.85;;;5.30;;
11771;SDS011;12556;55.748;13.194;2022-09-09T12:42:17;5.07;;;4.57;;
11771;SDS011;12556;55.748;13.194;2022-09-09T12:44:51;5.53;;;4.40;;
11771;SDS011;12556;55.748;13.194;2022-09-09T12:47:19;4.28;;;3.85;;
11771;SDS011;12556;55.748;13.194;2022-09-09T12:49:52;4.78;;;4.20;;
11771;SDS011;12556;55.748;13.194;2022-09-09T12:52:23;4.75;;;4.35;;
11771;SDS011;12556;55.748;13.194;2022-09-09T12:54:55;4.53;;;4.13;;
11771;SDS011;12556;55.748;13.194;2022-09-09T12:57:23;4.10;;;3.75;;
11771;SDS011;12556;55.748;13.194;2022-09-09T12:59:52;4.45;;;4.07;;
11771;SDS011;12556;55.748;13.194;2022-09-09T13:02:36;5.72;;;4.10;;
11771;SDS011;12556;55.748;13.194;2022-09-09T13:05:15;4.32;;;3.92;;
11771;SDS011;12556;55.748;13.194;2022-09-09T13:07:44;3.67;;;3.38;;
11771;SDS011;12556;55.748;13.194;2022-09-09T13:10:12;4.13;;;3.83;;
11771;SDS011;12556;55.748;13.194;2022-09-09T13:12:41;3.90;;;3.35;;
11771;SDS011;12556;55.748;13.194;2022-09-09T13:15:14;6.28;;;3.17;;
11771;SDS011;12556;55.748;13.194;2022-09-09T13:17:49;3.33;;;3.03;;
11771;SDS011;12556;55.748;13.194;2022-09-09T13:20:20;4.00;;;3.40;;
11771;SDS011;12556;55.748;13.194;2022-09-09T13:22:48;4.50;;;3.55;;
11771;SDS011;12556;55.748;13.194;2022-09-09T13:25:18;4.60;;;3.08;;
11771;SDS011;12556;55.748;13.194;2022-09-09T13:27:53;3.20;;;2.60;;
11771;SDS011;12556;55.748;13.194;2022-09-09T13:30:23;4.63;;;2.90;;
11771;SDS011;12556;55.748;13.194;2022-09-09T13:33:02;2.50;;;2.28;;
11771;SDS011;12556;55.748;13.194;2022-09-09T13:35:33;3.00;;;2.63;;
11771;SDS011;12556;55.748;13.194;2022-09-09T13:38:06;3.50;;;2.60;;
11771;SDS011;12556;55.748;13.194;2022-09-09T13:40:35;2.97;;;2.42;;
11771;SDS011;12556;55.748;13.194;2022-09-09T13:43:02;3.22;;;2.72;;
11771;SDS011;12556;55.748;13.194;2022-09-09T13:45:31;3.67;;;2.50;;
11771;SDS011;12556;55.748;13.194;2022-09-09T13:47:59;3.88;;;2.80;;
11771;SDS011;12556;55.748;13.194;2022-09-09T13:50:37;4.22;;;2.70;;
11771;SDS011;12556;55.748;13.194;2022-09-09T13:53:04;4.90;;;2.83;;
11771;SDS011;12556;55.748;13.194;2022-09-09T13:55:31;2.38;;;2.17;;
11771;SDS011;12556;55.748;13.194;2022-09-09T13:57:58;2.58;;;2.38;;
11771;SDS011;12556;55.748;13.194;2022-09-09T14:00:28;3.08;;;2.78;;
11771;SDS011;12556;55.748;13.194;2022-09-09T14:02:56;4.40;;;2.30;;
11771;SDS011;12556;55.748;13.194;2022-09-09T14:05:25;4.15;;;2.30;;
11771;SDS011;12556;55.748;13.194;2022-09-09T14:07:54;2.40;;;2.20;;
11771;SDS011;12556;55.748;13.194;2022-09-09T14:10:21;4.05;;;2.30;;
11771;SDS011;12556;55.748;13.194;2022-09-09T14:12:48;3.25;;;2.00;;
11771;SDS011;12556;55.748;13.194;2022-09-09T14:15:15;2.22;;;2.00;;
11771;SDS011;12556;55.748;13.194;2022-09-09T14:17:42;2.67;;;2.05;;
11771;SDS011;12556;55.748;13.194;2022-09-09T14:20:09;2.60;;;2.40;;
11771;SDS011;12556;55.748;13.194;2022-09-09T14:22:40;3.42;;;2.30;;
11771;SDS011;12556;55.748;13.194;2022-09-09T14:25:08;3.70;;;2.42;;
11771;SDS011;12556;55.748;13.194;2022-09-09T14:27:36;2.95;;;2.67;;
11771;SDS011;12556;55.748;13.194;2022-09-09T14:30:04;4.13;;;3.20;;
11771;SDS011;12556;55.748;13.194;2022-09-09T14:32:32;3.03;;;2.72;;
11771;SDS011;12556;55.748;13.194;2022-09-09T14:34:59;3.53;;;2.35;;
11771;SDS011;12556;55.748;13.194;2022-09-09T14:37:26;2.58;;;2.38;;
11771;SDS011;12556;55.748;13.194;2022-09-09T14:39:56;3.97;;;2.70;;
11771;SDS011;12556;55.748;13.194;2022-09-09T14:42:24;3.08;;;2.72;;
11771;SDS011;12556;55.748;13.194;2022-09-09T14:44:52;6.40;;;3.88;;
11771;SDS011;12556;55.748;13.194;2022-09-09T14:47:18;2.90;;;2.60;;
11771;SDS011;12556;55.748;13.194;2022-09-09T14:49:45;3.33;;;2.70;;
11771;SDS011;12556;55.748;13.194;2022-09-09T14:52:15;3.00;;;2.50;;
11771;SDS011;12556;55.748;13.194;2022-09-09T14:54:42;4.18;;;3.15;;
11771;SDS011;12556;55.748;13.194;2022-09-09T14:57:09;4.28;;;2.90;;
11771;SDS011;12556;55.748;13.194;2022-09-09T14:59:37;2.67;;;2.47;;
11771;SDS011;12556;55.748;13.194;2022-09-09T15:02:04;4.05;;;2.60;;